CST,Max TemperatureF,Mean TemperatureF,Min TemperatureF,Max Dew PointF,MeanDew PointF,Min DewpointF,Max Humidity, Mean Humidity, Min Humidity, Max Sea Level PressureIn, Mean Sea Level PressureIn, Min Sea Level PressureIn, Max VisibilityMiles, Mean VisibilityMiles, Min VisibilityMiles, Max Wind SpeedMPH, Mean Wind SpeedMPH, Max Gust SpeedMPH,PrecipitationIn, CloudCover, Events, WindDirDegrees
2013-8-1,84,74,64,68,63,59,100,75,42,30.07,29.99,29.83,12,7,3,13,5,,0.00,6,Rain-Thunderstorm,87
2013-8-2,84,75,66,68,63,59,100,72,37,30.06,29.98,29.83,12,8,6,17,7,,0.12,6,Fog-Rain,91
2013-8-3,82,74,66,70,65,62,94,79,53,30.09,29.99,29.82,12,7,1,12,7,23,0.00,5,Fog-Rain-Thunderstorm,90
2013-8-4,78,73,68,68,64,59,94,76,51,30.04,29.99,29.78,6,6,6,9,7,,0.00,5,Rain,85
2013-8-5,83,74,65,70,65,59,94,75,45,30.05,29.97,29.77,12,8,6,14,7,,0.00,6,,105
2013-8-6,84,76,68,70,61,55,94,60,28,30.05,29.97,29.81,12,8,5,16,7,26,0.00,5,Fog,80
2013-8-7,84,74,65,66,59,54,83,57,28,30.06,29.96,29.81,12,9,6,17,13,29,0.00,4,,80
2013-8-8,85,74,62,68,61,57,94,69,40,30.05,29.96,29.79,12,7,0,107,8,,0.00,5,Thunderstorm,93
2013-8-9,82,72,62,70,65,59,98,82,46,30.05,29.97,29.83,12,6,3,15,4,,0.39,4,Fog-Rain-Thunderstorm,216
2013-8-10,83,74,66,68,63,54,94,74,48,30.05,29.98,29.81,12,8,3,16,6,,0.00,5,,94
2013-8-11,81,72,62,69,65,59,100,83,57,30.07,29.99,29.83,12,7,2,14,4,,0.02,6,Fog-Rain,251
2013-8-12,82,72,62,68,66,62,94,84,47,30.04,29.96,29.83,12,6,1,14,5,,0.08,6,Fog-Rain-Thunderstorm,277
2013-8-13,82,74,65,70,67,64,100,86,61,30.02,29.96,29.80,12,6,1,13,5,,0.04,6,Fog-Rain,231
2013-8-14,82,74,66,71,68,64,100,84,61,29.99,29.91,29.72,12,5,1,15,4,,0.04,5,Fog-Rain,246
2013-8-15,83,76,68,70,68,63,100,85,47,30.03,29.94,29.74,12,5,0,17,5,,0.04,5,Fog-Rain,236
2013-8-16,85,76,66,70,65,62,100,78,46,30.07,29.95,29.80,12,8,5,13,6,,0.28,5,Rain,77
2013-8-17,78,72,65,68,65,62,100,85,64,30.06,29.99,29.82,12,7,1,12,6,,0.00,6,Fog,190
2013-8-18,84,74,63,72,66,61,100,84,45,30.06,29.99,29.82,12,6,0,13,4,,0.00,6,Fog-Rain-Thunderstorm,142
2013-8-19,84,74,63,70,65,61,94,78,44,30.03,29.94,29.78,12,8,5,18,6,,0.00,5,Rain-Thunderstorm,34
2013-8-20,85,74,63,72,65,61,100,81,51,30.02,29.93,29.81,12,7,0,15,5,18,0.24,6,Fog-Rain-Thunderstorm,234
2013-8-21,84,76,68,70,65,61,100,75,44,30.04,29.95,29.77,12,8,5,10,6,,0.00,6,Fog-Rain,124
2013-8-22,85,76,66,70,64,59,100,78,38,30.00,29.91,29.77,12,7,1,14,7,,0.59,6,Rain,86
2013-8-23,82,72,63,70,65,61,94,81,51,30.05,29.92,29.76,12,8,6,9,4,,0.01,6,Rain,180
2013-8-24,81,73,65,70,64,34,100,83,28,30.06,29.97,29.80,12,6,0,16,6,,1.10,6,Fog-Rain-Thunderstorm,223
2013-8-25,79,72,64,70,65,61,100,80,56,30.07,30.01,29.85,12,8,6,15,6,20,0.00,6,Fog-Rain,57
2013-8-26,81,72,64,68,64,59,96,77,50,30.08,29.99,29.83,12,7,0,12,7,,0.00,4,Fog-Rain-Thunderstorm,307
2013-8-27,80,72,64,70,64,50,100,82,39,30.04,29.96,29.82,12,7,0,13,5,,1.02,6,Fog-Rain-Thunderstorm,71
2013-8-28,82,73,64,70,64,51,94,79,47,30.06,29.97,29.80,12,8,6,9,4,,0.00,5,Fog,95
2013-8-29,81,72,64,70,64,34,98,78,20,30.07,29.98,29.83,12,7,0,13,5,,0.00,5,Fog-Rain,238
2013-8-30,81,72,64,70,64,36,94,77,27,30.06,29.99,29.82,12,7,5,13,5,,0.00,6,Fog,268
2013-8-31,84,74,64,70,65,61,100,83,45,30.08,29.98,29.83,12,6,2,13,3,,0.24,6,Fog-Rain,259